createdAt,value
2018-08-03T00:00:02.657Z,22.60
2018-08-03T00:02:30.845Z,22.40
2018-08-03T00:04:59.010Z,22.30
2018-08-03T00:07:27.843Z,22.20
2018-08-03T00:09:56.001Z,22.20
2018-08-03T00:12:27.828Z,22.10
2018-08-03T00:14:57.888Z,22.00
2018-08-03T00:17:31.612Z,22.20
2018-08-03T00:19:59.776Z,22.30
2018-08-03T00:22:28.636Z,22.40
2018-08-03T00:24:56.992Z,22.40
2018-08-03T00:27:26.921Z,22.30
2018-08-03T00:29:57.383Z,22.30
2018-08-03T00:32:27.429Z,22.20
2018-08-03T00:34:56.517Z,22.30
2018-08-03T00:37:24.690Z,22.30
2018-08-03T00:39:54.453Z,22.40
2018-08-03T00:42:22.618Z,22.30
2018-08-03T00:44:53.297Z,22.30
2018-08-03T00:47:23.312Z,22.00
2018-08-03T00:49:51.960Z,21.80
2018-08-03T00:52:21.027Z,21.60
2018-08-03T00:54:50.230Z,21.50
2018-08-03T00:57:19.812Z,21.60
2018-08-03T00:59:48.024Z,21.70
2018-08-03T01:02:17.219Z,21.90
2018-08-03T01:04:51.937Z,22.00
2018-08-03T01:07:21.052Z,22.00
2018-08-03T01:09:49.913Z,22.20
2018-08-03T01:12:18.525Z,22.20
2018-08-03T01:14:46.696Z,22.20
2018-08-03T01:17:14.835Z,22.30
2018-08-03T01:19:43.340Z,22.40
2018-08-03T01:22:12.564Z,22.30
2018-08-03T01:24:41.143Z,22.30
2018-08-03T01:27:10.312Z,22.20
2018-08-03T01:29:39.300Z,22.00
2018-08-03T01:32:08.918Z,21.80
2018-08-03T01:34:37.438Z,21.60
2018-08-03T01:37:06.109Z,21.60
2018-08-03T01:39:35.319Z,21.60
2018-08-03T01:42:04.478Z,21.60
2018-08-03T01:44:37.220Z,21.60
2018-08-03T01:47:07.355Z,21.30
2018-08-03T01:49:35.529Z,21.10
2018-08-03T01:52:03.840Z,21.10
2018-08-03T01:54:32.012Z,21.00
2018-08-03T01:57:02.893Z,21.00
2018-08-03T01:59:31.038Z,21.20
2018-08-03T02:02:00.190Z,21.30
2018-08-03T02:04:28.408Z,21.20
2018-08-03T02:06:57.416Z,21.10
2018-08-03T02:09:26.841Z,20.90
2018-08-03T02:14:23.636Z,20.80
2018-08-03T02:16:52.938Z,20.80
2018-08-03T02:19:21.378Z,20.90
2018-08-03T02:21:49.513Z,20.90
2018-08-03T02:24:18.169Z,21.00
2018-08-03T02:26:48.136Z,21.00
2018-08-03T02:29:16.675Z,21.10
2018-08-03T02:31:45.574Z,21.20
2018-08-03T02:34:14.421Z,21.10
2018-08-03T02:36:42.976Z,20.90
2018-08-03T02:39:12.133Z,20.80
2018-08-03T02:44:09.637Z,21.00
2018-08-03T02:46:39.272Z,21.00
2018-08-03T02:49:08.336Z,20.90
2018-08-03T02:51:37.370Z,20.70
2018-08-03T02:54:06.033Z,20.60
2018-08-03T02:56:36.425Z,20.60
2018-08-03T02:59:04.573Z,20.40
2018-08-03T03:01:33.668Z,20.30
2018-08-03T03:04:02.440Z,20.20
2018-08-03T03:06:30.600Z,20.20
2018-08-03T03:08:59.726Z,20.10
2018-08-03T03:11:28.904Z,20.20
2018-08-03T03:13:57.953Z,20.40
2018-08-03T03:16:26.483Z,20.30
2018-08-03T03:18:55.707Z,20.10
2018-08-03T03:21:24.231Z,20.10
2018-08-03T03:23:54.416Z,20.20
2018-08-03T03:26:23.477Z,20.20
2018-08-03T03:28:51.713Z,20.10
2018-08-03T03:31:20.481Z,20.00
2018-08-03T03:33:51.348Z,19.90
2018-08-03T03:36:20.424Z,19.70
2018-08-03T03:38:50.844Z,19.80
2018-08-03T03:41:20.012Z,19.90
2018-08-03T03:43:49.201Z,20.00
2018-08-03T03:46:20.000Z,20.00
2018-08-03T03:48:48.545Z,20.00
2018-08-03T03:51:17.136Z,19.90
2018-08-03T03:53:46.350Z,19.90
2018-08-03T03:56:14.925Z,19.90
2018-08-03T03:58:44.255Z,19.90
2018-08-03T04:01:13.425Z,19.80
2018-08-03T04:03:42.083Z,19.80
2018-08-03T04:06:12.721Z,19.80
2018-08-03T04:08:41.704Z,19.90
2018-08-03T04:11:10.507Z,19.80
2018-08-03T04:13:40.007Z,19.80
2018-08-03T04:16:08.209Z,19.80
2018-08-03T04:18:39.828Z,19.80
2018-08-03T04:21:08.016Z,19.80
2018-08-03T04:23:37.185Z,19.80
2018-08-03T04:26:09.920Z,19.90
2018-08-03T04:28:38.660Z,20.10
2018-08-03T04:31:06.828Z,20.10
2018-08-03T04:36:09.096Z,20.30
2018-08-03T04:38:38.337Z,20.50
2018-08-03T04:41:06.565Z,20.50
2018-08-03T04:43:35.112Z,20.50
2018-08-03T04:46:04.473Z,20.60
2018-08-03T04:48:33.164Z,20.80
2018-08-03T04:51:02.577Z,20.90
2018-08-03T04:53:30.975Z,20.90
2018-08-03T04:55:59.107Z,21.00
2018-08-03T04:58:28.352Z,21.10
2018-08-03T05:00:57.040Z,21.40
2018-08-03T05:03:32.077Z,21.70
2018-08-03T05:06:00.830Z,21.90
2018-08-03T05:08:29.009Z,22.10
2018-08-03T05:10:59.000Z,22.30
2018-08-03T05:13:28.034Z,22.60
2018-08-03T05:15:56.184Z,22.90
2018-08-03T05:18:25.587Z,23.20
2018-08-03T05:20:56.321Z,23.60
2018-08-03T05:23:25.408Z,23.90
2018-08-03T05:25:53.823Z,24.20
2018-08-03T05:28:23.273Z,24.50
2018-08-03T05:30:51.490Z,24.70
2018-08-03T05:33:19.603Z,24.90
2018-08-03T05:35:48.421Z,25.20
2018-08-03T05:38:17.619Z,25.30
2018-08-03T05:40:47.078Z,25.40
2018-08-03T05:43:15.876Z,25.60
2018-08-03T05:45:44.836Z,25.60
2018-08-03T05:48:13.428Z,25.70
2018-08-03T05:50:41.898Z,26.00
2018-08-03T05:53:11.547Z,26.30
2018-08-03T05:55:40.600Z,26.60
2018-08-03T05:58:09.164Z,26.60
2018-08-03T06:00:39.080Z,26.70
2018-08-03T06:03:08.240Z,27.10
2018-08-03T06:05:36.463Z,27.30
2018-08-03T06:08:04.695Z,27.20
2018-08-03T06:10:33.189Z,27.60
2018-08-03T06:13:01.707Z,27.80
2018-08-03T06:15:30.701Z,27.60
2018-08-03T06:17:59.128Z,27.50
2018-08-03T06:20:28.294Z,27.80
2018-08-03T06:22:57.709Z,28.10
2018-08-03T06:25:25.917Z,28.40
2018-08-03T06:27:54.709Z,28.90
2018-08-03T06:30:23.440Z,29.40
2018-08-03T06:32:51.615Z,29.60
2018-08-03T06:35:21.035Z,29.70
2018-08-03T06:37:49.201Z,30.10
2018-08-03T06:40:17.744Z,30.60
2018-08-03T06:42:46.219Z,30.90
2018-08-03T06:45:14.367Z,31.20
2018-08-03T06:47:42.839Z,31.10
2018-08-03T06:50:11.077Z,31.00
2018-08-03T06:52:40.468Z,31.10
2018-08-03T06:55:08.652Z,30.80
2018-08-03T06:57:37.315Z,30.90
2018-08-03T07:00:06.436Z,31.50
2018-08-03T07:02:37.205Z,32.20
2018-08-03T07:05:05.964Z,32.80
2018-08-03T07:07:34.535Z,33.00
2018-08-03T07:10:03.324Z,33.20
2018-08-03T07:12:32.155Z,33.20
2018-08-03T07:15:02.162Z,33.50
2018-08-03T07:17:30.975Z,34.20
2018-08-03T07:19:59.201Z,34.60
2018-08-03T07:22:27.877Z,34.70
2018-08-03T07:24:56.204Z,34.30
2018-08-03T07:27:26.516Z,34.30
2018-08-03T07:29:54.977Z,34.50
2018-08-03T07:32:23.212Z,35.00
2018-08-03T07:34:52.784Z,35.20
2018-08-03T07:37:21.134Z,35.20
2018-08-03T07:39:49.295Z,35.30
2018-08-03T07:42:22.174Z,35.50
2018-08-03T07:44:50.321Z,36.30
2018-08-03T07:47:18.931Z,36.90
2018-08-03T07:49:47.644Z,37.00
2018-08-03T07:52:17.021Z,37.40
2018-08-03T07:54:46.017Z,37.90
2018-08-03T07:57:15.181Z,38.20
2018-08-03T07:59:45.168Z,38.20
2018-08-03T08:02:14.675Z,38.30
2018-08-03T08:04:42.835Z,38.30
2018-08-03T08:07:11.807Z,38.70
2018-08-03T08:09:40.009Z,39.00
2018-08-03T08:12:09.295Z,38.90
2018-08-03T08:14:37.470Z,39.20
2018-08-03T08:17:06.412Z,39.50
2018-08-03T08:19:36.161Z,40.00
2018-08-03T08:22:04.360Z,40.00
2018-08-03T08:24:33.163Z,39.60
2018-08-03T08:27:01.796Z,39.40
2018-08-03T08:29:29.948Z,39.10
2018-08-03T08:31:59.069Z,39.30
2018-08-03T08:34:27.236Z,39.60
2018-08-03T08:36:55.995Z,39.80
2018-08-03T08:39:24.201Z,40.10
2018-08-03T08:41:52.844Z,40.00
2018-08-03T08:44:21.584Z,40.10
2018-08-03T08:46:50.337Z,40.20
2018-08-03T08:49:18.914Z,39.80
2018-08-03T08:51:47.112Z,39.90
2018-08-03T08:54:18.784Z,39.70
2018-08-03T08:56:46.892Z,40.40
2018-08-03T08:59:15.362Z,40.40
2018-08-03T09:01:44.241Z,39.80
2018-08-03T09:04:14.383Z,38.90
2018-08-03T09:06:43.688Z,38.90
2018-08-03T09:09:13.810Z,38.90
2018-08-03T09:11:42.002Z,39.60
2018-08-03T09:14:13.197Z,40.60
2018-08-03T09:16:41.332Z,40.30
2018-08-03T09:19:10.448Z,40.90
2018-08-03T09:21:38.960Z,41.10
2018-08-03T09:24:08.352Z,41.00
2018-08-03T09:26:37.380Z,41.10
2018-08-03T09:29:05.568Z,41.20
2018-08-03T09:31:36.152Z,41.60
2018-08-03T09:34:05.011Z,42.20
2018-08-03T09:36:34.407Z,42.60
2018-08-03T09:39:04.500Z,42.50
2018-08-03T09:41:33.349Z,41.40
2018-08-03T09:44:02.015Z,40.10
2018-08-03T09:46:30.904Z,39.60
2018-08-03T09:48:59.984Z,39.70
2018-08-03T09:51:28.172Z,39.80
2018-08-03T09:53:58.195Z,39.90
2018-08-03T09:56:26.848Z,39.00
2018-08-03T09:58:55.035Z,38.70
2018-08-03T10:01:23.205Z,38.10
2018-08-03T10:03:52.481Z,37.40
2018-08-03T10:06:21.923Z,37.20
2018-08-03T10:08:54.383Z,37.60
2018-08-03T10:11:23.699Z,36.50
2018-08-03T10:13:53.620Z,36.40
2018-08-03T10:16:22.977Z,37.10
2018-08-03T10:18:51.981Z,38.40
2018-08-03T10:21:20.349Z,38.30
2018-08-03T10:23:50.148Z,38.20
2018-08-03T10:26:19.280Z,37.60
2018-08-03T10:28:48.037Z,37.70
2018-08-03T10:31:16.488Z,37.80
2018-08-03T10:33:46.243Z,38.10
2018-08-03T10:36:15.166Z,38.70
2018-08-03T10:38:43.341Z,39.10
2018-08-03T10:41:12.698Z,40.00
2018-08-03T10:43:42.772Z,40.00
2018-08-03T10:46:12.301Z,38.00
2018-08-03T10:48:41.326Z,37.40
2018-08-03T10:51:10.181Z,37.70
2018-08-03T10:53:42.416Z,38.60
2018-08-03T10:56:11.163Z,39.40
2018-08-03T11:01:08.656Z,39.90
2018-08-03T11:03:38.028Z,40.10
2018-08-03T11:06:07.229Z,39.60
2018-08-03T11:08:35.447Z,39.50
2018-08-03T11:11:04.396Z,39.20
2018-08-03T11:13:34.509Z,39.10
2018-08-03T11:16:02.605Z,40.00
2018-08-03T11:18:31.105Z,40.80
2018-08-03T11:20:59.240Z,42.20
2018-08-03T11:23:28.993Z,41.40
2018-08-03T11:25:57.687Z,40.10
2018-08-03T11:28:27.293Z,39.40
2018-08-03T11:30:55.430Z,40.50
2018-08-03T11:33:24.327Z,42.20
2018-08-03T11:38:22.856Z,42.20
2018-08-03T11:40:51.013Z,42.60
2018-08-03T11:43:20.168Z,41.40
2018-08-03T11:45:50.060Z,41.50
2018-08-03T11:48:19.671Z,41.20
2018-08-03T11:50:48.527Z,42.10
2018-08-03T11:53:17.327Z,42.90
2018-08-03T11:55:46.440Z,42.90
2018-08-03T11:58:15.160Z,42.60
2018-08-03T12:00:43.644Z,43.40
2018-08-03T12:03:11.759Z,44.50
2018-08-03T12:05:40.739Z,45.40
2018-08-03T12:08:08.924Z,45.70
2018-08-03T12:10:38.826Z,45.70
2018-08-03T12:13:06.957Z,45.80
2018-08-03T12:15:35.137Z,45.20
2018-08-03T12:18:04.981Z,45.80
2018-08-03T12:20:33.177Z,46.20
2018-08-03T12:23:03.248Z,46.10
2018-08-03T12:25:31.700Z,46.20
2018-08-03T12:27:59.896Z,45.50
2018-08-03T12:30:29.102Z,45.20
2018-08-03T12:32:57.213Z,45.50
2018-08-03T12:35:26.413Z,45.90
2018-08-03T12:37:55.152Z,45.00
2018-08-03T12:40:23.413Z,45.20
2018-08-03T12:42:51.853Z,45.60
2018-08-03T12:45:22.071Z,45.20
2018-08-03T12:47:52.336Z,42.60
2018-08-03T12:50:20.548Z,40.60
2018-08-03T12:52:49.596Z,39.40
2018-08-03T12:55:17.801Z,39.10
2018-08-03T12:57:45.992Z,39.20
2018-08-03T13:00:14.194Z,38.60
2018-08-03T13:02:42.738Z,39.30
2018-08-03T13:05:11.357Z,41.10
2018-08-03T13:07:40.139Z,42.70
2018-08-03T13:10:08.199Z,43.70
2018-08-03T13:12:37.751Z,42.90
2018-08-03T13:15:06.883Z,40.80
2018-08-03T13:17:35.967Z,40.40
2018-08-03T13:20:06.277Z,41.10
2018-08-03T13:22:34.426Z,42.40
2018-08-03T13:25:03.824Z,42.70
2018-08-03T13:27:32.366Z,42.80
2018-08-03T13:30:01.057Z,42.40
2018-08-03T13:32:30.592Z,42.40
2018-08-03T13:34:59.790Z,42.00
2018-08-03T13:37:31.206Z,41.00
2018-08-03T13:40:00.131Z,41.50
2018-08-03T13:42:29.243Z,42.10
2018-08-03T13:44:59.828Z,42.90
2018-08-03T13:47:28.606Z,43.00
2018-08-03T13:49:57.164Z,41.70
2018-08-03T13:52:26.039Z,40.90
2018-08-03T13:54:54.236Z,41.00
2018-08-03T13:57:22.644Z,41.70
2018-08-03T13:59:51.572Z,42.30
2018-08-03T14:02:24.414Z,41.80
2018-08-03T14:04:54.141Z,42.00
2018-08-03T14:07:22.485Z,42.70
2018-08-03T14:09:51.016Z,42.90
2018-08-03T14:12:19.236Z,41.90
2018-08-03T14:17:21.848Z,39.90
2018-08-03T14:22:21.056Z,39.50
2018-08-03T14:24:49.548Z,39.80
2018-08-03T14:27:19.687Z,40.50
2018-08-03T14:29:48.488Z,40.00
2018-08-03T14:32:16.938Z,39.50
2018-08-03T14:34:46.499Z,39.60
2018-08-03T14:37:14.691Z,39.50
2018-08-03T14:39:44.666Z,39.80
2018-08-03T14:42:18.417Z,39.80
2018-08-03T14:44:46.868Z,40.60
2018-08-03T14:47:16.662Z,40.90
2018-08-03T14:49:44.784Z,39.90
2018-08-03T14:52:14.209Z,40.20
2018-08-03T14:54:43.136Z,40.30
2018-08-03T14:57:12.756Z,39.80
2018-08-03T14:59:41.641Z,39.70
2018-08-03T15:02:10.251Z,38.70
2018-08-03T15:04:39.303Z,38.10
2018-08-03T15:07:07.440Z,38.50
2018-08-03T15:09:35.624Z,38.90
2018-08-03T15:12:03.831Z,38.30
2018-08-03T15:14:33.523Z,38.00
2018-08-03T15:17:03.468Z,37.80
2018-08-03T15:19:32.336Z,37.10
2018-08-03T15:22:01.256Z,37.20
2018-08-03T15:24:29.460Z,37.40
2018-08-03T15:26:57.632Z,37.50
2018-08-03T15:29:27.156Z,37.90
2018-08-03T15:31:56.248Z,39.10
2018-08-03T15:34:24.628Z,40.10
2018-08-03T15:36:53.720Z,40.60
2018-08-03T15:39:22.392Z,40.90
2018-08-03T15:41:51.057Z,39.50
2018-08-03T15:44:20.730Z,39.60
2018-08-03T15:46:48.923Z,39.80
2018-08-03T15:49:17.531Z,40.20
2018-08-03T15:51:46.781Z,40.90
2018-08-03T15:54:14.968Z,41.50
2018-08-03T15:56:44.916Z,41.50
2018-08-03T15:59:15.738Z,41.20
2018-08-03T16:01:46.141Z,39.80
2018-08-03T16:04:15.348Z,37.80
2018-08-03T16:06:46.329Z,37.10
2018-08-03T16:09:14.536Z,37.20
2018-08-03T16:11:45.384Z,37.20
2018-08-03T16:14:17.558Z,36.90
2018-08-03T16:16:47.189Z,37.30
2018-08-03T16:19:16.676Z,37.10
2018-08-03T16:21:44.801Z,36.10
2018-08-03T16:24:18.863Z,35.90
2018-08-03T16:26:47.176Z,36.30
2018-08-03T16:29:15.380Z,36.20
2018-08-03T16:31:49.648Z,36.20
2018-08-03T16:34:17.848Z,35.60
2018-08-03T16:36:46.040Z,35.50
2018-08-03T16:39:16.396Z,35.60
2018-08-03T16:41:48.381Z,35.80
2018-08-03T16:44:16.895Z,35.80
2018-08-03T16:46:45.474Z,35.90
2018-08-03T16:49:15.176Z,35.80
2018-08-03T16:51:44.638Z,35.80
2018-08-03T16:54:15.788Z,35.90
2018-08-03T16:56:45.164Z,35.80
2018-08-03T16:59:13.778Z,35.60
2018-08-03T17:01:42.321Z,35.40
2018-08-03T17:04:11.621Z,35.30
2018-08-03T17:06:40.294Z,35.00
2018-08-03T17:09:10.697Z,34.70
2018-08-03T17:11:41.236Z,34.50
2018-08-03T17:14:09.432Z,34.40
2018-08-03T17:16:37.708Z,34.40
2018-08-03T17:19:07.388Z,34.40
2018-08-03T17:21:36.620Z,34.10
2018-08-03T17:24:06.511Z,34.10
2018-08-03T17:26:35.744Z,33.90
2018-08-03T17:29:08.031Z,33.60
2018-08-03T17:31:38.269Z,33.40
2018-08-03T17:34:06.468Z,33.20
2018-08-03T17:36:35.618Z,33.10
2018-08-03T17:39:06.393Z,33.20
2018-08-03T17:41:34.604Z,33.30
2018-08-03T17:44:05.337Z,33.50
2018-08-03T17:46:33.804Z,33.60
2018-08-03T17:49:03.760Z,33.60
2018-08-03T17:51:33.473Z,33.60
2018-08-03T17:54:02.562Z,33.30
2018-08-03T17:56:30.764Z,33.10
2018-08-03T17:58:59.530Z,32.80
2018-08-03T18:01:27.812Z,32.60
2018-08-03T18:03:57.844Z,32.50
2018-08-03T18:06:29.315Z,32.30
2018-08-03T18:08:59.105Z,32.10
2018-08-03T18:11:27.482Z,31.90
2018-08-03T18:13:55.949Z,31.80
2018-08-03T18:16:25.417Z,31.60
2018-08-03T18:18:54.319Z,31.60
2018-08-03T18:21:22.617Z,31.50
2018-08-03T18:23:51.847Z,31.40
2018-08-03T18:26:20.879Z,31.30
2018-08-03T18:28:50.097Z,31.20
2018-08-03T18:31:18.156Z,31.20
2018-08-03T18:33:47.390Z,31.10
2018-08-03T18:36:17.104Z,31.00
2018-08-03T18:38:45.248Z,31.00
2018-08-03T18:41:13.784Z,31.00
2018-08-03T18:43:43.854Z,31.00
2018-08-03T18:46:12.483Z,30.80
2018-08-03T18:48:40.834Z,30.30
2018-08-03T18:51:10.841Z,29.90
2018-08-03T18:53:38.995Z,29.60
2018-08-03T18:56:08.240Z,29.60
2018-08-03T18:58:37.017Z,29.60
2018-08-03T19:01:05.865Z,29.50
2018-08-03T19:03:34.888Z,29.30
2018-08-03T19:06:05.076Z,29.20
2018-08-03T19:08:33.769Z,29.10
2018-08-03T19:11:02.578Z,29.00
2018-08-03T19:13:30.731Z,28.80
2018-08-03T19:15:59.484Z,28.40
2018-08-03T19:18:28.796Z,28.10
2018-08-03T19:20:56.976Z,27.70
2018-08-03T19:23:31.591Z,27.40
2018-08-03T19:26:00.474Z,27.20
2018-08-03T19:28:29.476Z,27.10
2018-08-03T19:30:57.653Z,27.10
2018-08-03T19:33:26.950Z,27.20
2018-08-03T19:35:57.227Z,27.10
2018-08-03T19:38:26.797Z,27.10
2018-08-03T19:40:55.533Z,27.10
2018-08-03T19:43:24.159Z,27.00
2018-08-03T19:45:54.422Z,26.80
2018-08-03T19:48:22.520Z,26.70
2018-08-03T19:50:51.496Z,26.70
2018-08-03T19:53:20.299Z,26.70
2018-08-03T19:55:49.097Z,26.60
2018-08-03T19:58:17.288Z,26.60
2018-08-03T20:00:48.408Z,26.50
2018-08-03T20:03:17.889Z,26.40
2018-08-03T20:05:46.548Z,26.30
2018-08-03T20:08:14.681Z,26.30
2018-08-03T20:10:44.790Z,26.20
2018-08-03T20:13:12.956Z,26.20
2018-08-03T20:15:42.623Z,26.10
2018-08-03T20:18:12.821Z,25.90
2018-08-03T20:20:41.989Z,25.80
2018-08-03T20:23:10.461Z,25.90
2018-08-03T20:25:38.611Z,25.80
2018-08-03T20:28:07.364Z,25.80
2018-08-03T20:30:35.926Z,25.90
2018-08-03T20:33:06.380Z,26.00
2018-08-03T20:35:34.690Z,26.10
2018-08-03T20:38:03.140Z,26.10
2018-08-03T20:40:31.758Z,26.00
2018-08-03T20:43:01.667Z,26.00
2018-08-03T20:45:32.772Z,25.90
2018-08-03T20:48:01.307Z,25.80
2018-08-03T20:50:29.511Z,25.80
2018-08-03T20:52:58.648Z,25.60
2018-08-03T20:55:27.384Z,25.50
2018-08-03T20:57:55.644Z,25.40
2018-08-03T21:00:25.101Z,25.30
2018-08-03T21:02:54.476Z,25.20
2018-08-03T21:05:24.832Z,25.20
2018-08-03T21:07:53.348Z,25.10
2018-08-03T21:10:21.852Z,25.10
2018-08-03T21:12:51.057Z,25.10
2018-08-03T21:15:20.952Z,25.10
2018-08-03T21:17:51.078Z,25.00
2018-08-03T21:20:19.217Z,25.10
2018-08-03T21:22:47.407Z,25.10
2018-08-03T21:25:16.472Z,25.00
2018-08-03T21:27:44.640Z,24.90
2018-08-03T21:30:12.812Z,24.80
2018-08-03T21:32:41.412Z,24.80
2018-08-03T21:35:11.279Z,24.60
2018-08-03T21:37:40.613Z,24.60
2018-08-03T21:40:09.471Z,24.50
2018-08-03T21:42:38.839Z,24.40
2018-08-03T21:45:07.655Z,24.20
2018-08-03T21:47:37.320Z,24.20
2018-08-03T21:50:06.027Z,24.10
2018-08-03T21:52:34.178Z,24.10
2018-08-03T21:55:03.445Z,24.20
2018-08-03T21:57:32.388Z,24.30
2018-08-03T22:00:02.711Z,24.40
2018-08-03T22:02:30.853Z,24.50
2018-08-03T22:04:59.307Z,24.40
2018-08-03T22:07:27.487Z,24.30
2018-08-03T22:09:57.853Z,24.40
2018-08-03T22:12:27.657Z,24.70
2018-08-03T22:14:56.608Z,24.80
2018-08-03T22:17:26.254Z,24.90
2018-08-03T22:19:55.020Z,25.00
2018-08-03T22:24:52.943Z,25.00
2018-08-03T22:27:22.510Z,24.80
2018-08-03T22:29:50.711Z,24.40
2018-08-03T22:32:19.812Z,24.40
2018-08-03T22:34:49.704Z,24.50
2018-08-03T22:37:20.305Z,24.60
2018-08-03T22:39:48.823Z,24.60
2018-08-03T22:42:18.139Z,24.60
2018-08-03T22:44:46.856Z,24.60
2018-08-03T22:47:15.001Z,24.60
2018-08-03T22:49:45.235Z,24.50
2018-08-03T22:52:13.412Z,24.20
2018-08-03T22:54:43.127Z,24.00
2018-08-03T22:57:12.304Z,23.90
2018-08-03T22:59:40.447Z,23.90
2018-08-03T23:02:09.435Z,23.90
2018-08-03T23:04:39.196Z,24.00
2018-08-03T23:07:07.591Z,24.10
2018-08-03T23:09:36.409Z,24.00
2018-08-03T23:12:04.563Z,23.80
2018-08-03T23:14:33.456Z,23.70
2018-08-03T23:19:30.038Z,23.60
2018-08-03T23:21:59.025Z,23.40
2018-08-03T23:24:27.207Z,23.40
2018-08-03T23:26:55.866Z,23.40
2018-08-03T23:29:24.932Z,23.50
2018-08-03T23:31:56.688Z,23.30
2018-08-03T23:34:25.245Z,23.20
2018-08-03T23:36:54.635Z,23.20
2018-08-03T23:39:22.771Z,23.10
2018-08-03T23:41:51.901Z,23.00
2018-08-03T23:44:21.740Z,23.20
2018-08-03T23:46:49.936Z,23.50
2018-08-03T23:49:19.293Z,23.60
2018-08-03T23:51:48.332Z,23.80
2018-08-03T23:54:19.653Z,23.90
2018-08-03T23:56:48.308Z,24.00
2018-08-03T23:59:17.132Z,24.00
